createdAt,value
2022-10-02T00:02:01.159Z,100686.81
2022-10-02T00:05:07.895Z,100685.44
2022-10-02T00:08:15.336Z,100692.31
2022-10-02T00:11:21.399Z,100691.59
2022-10-02T00:14:25.177Z,100695.72
2022-10-02T00:17:34.475Z,100687.94
2022-10-02T00:20:46.044Z,100695.84
2022-10-02T00:23:53.287Z,100695.34
2022-10-02T00:27:02.121Z,100690.06
2022-10-02T00:30:06.307Z,100694.47
2022-10-02T00:33:19.393Z,100692.31
2022-10-02T00:36:35.136Z,100705.56
2022-10-02T00:39:50.840Z,100702.84
2022-10-02T00:43:04.540Z,100708.63
2022-10-02T00:46:32.564Z,100712.28
2022-10-02T00:49:54.398Z,100710.88
2022-10-02T00:53:11.999Z,100710.81
2022-10-02T00:56:25.707Z,100705.59
2022-10-02T00:59:44.878Z,100716.84
2022-10-02T01:03:11.022Z,100716.38
2022-10-02T01:06:14.992Z,100728.38
2022-10-02T01:09:17.677Z,100712.97
2022-10-02T01:12:20.426Z,100730.31
2022-10-02T01:15:28.934Z,100732.75
2022-10-02T01:18:32.183Z,100727.09
2022-10-02T01:21:43.825Z,100736.44
2022-10-02T01:24:52.132Z,100732.88
2022-10-02T01:27:54.859Z,100742.47
2022-10-02T01:31:03.504Z,100740.97
2022-10-02T01:34:06.250Z,100750.75
2022-10-02T01:37:10.006Z,100752.09
2022-10-02T01:40:27.501Z,100752.88
2022-10-02T01:43:32.929Z,100757.81
2022-10-02T01:46:42.533Z,100756.81
2022-10-02T01:50:07.647Z,100756.03
2022-10-02T01:53:16.510Z,100762.31
2022-10-02T01:56:28.625Z,100758.41
2022-10-02T01:59:45.944Z,100749.09
2022-10-02T02:02:54.679Z,100757.81
2022-10-02T02:06:08.291Z,100756.59
2022-10-02T02:09:18.318Z,100762.44
2022-10-02T02:12:29.133Z,100764.53
2022-10-02T02:15:41.756Z,100766.69
2022-10-02T02:18:50.219Z,100777.66
2022-10-02T02:21:56.990Z,100772.94
2022-10-02T02:25:04.035Z,100778.50
2022-10-02T02:28:12.542Z,100777.59
2022-10-02T02:31:20.219Z,100779.25
2022-10-02T02:34:28.423Z,100781.88
2022-10-02T02:37:35.976Z,100783.81
2022-10-02T02:40:43.309Z,100783.97
2022-10-02T02:43:52.216Z,100786.97
2022-10-02T02:47:05.317Z,100778.03
2022-10-02T02:50:13.370Z,100788.16
2022-10-02T02:53:20.830Z,100784.59
2022-10-02T02:56:23.965Z,100784.50
2022-10-02T02:59:32.410Z,100779.13
2022-10-02T03:02:35.026Z,100788.41
2022-10-02T03:05:42.382Z,100791.06
2022-10-02T03:08:47.570Z,100799.66
2022-10-02T03:11:59.820Z,100796.66
2022-10-02T03:15:17.354Z,100806.13
2022-10-02T03:18:33.710Z,100802.28
2022-10-02T03:21:42.054Z,100802.63
2022-10-02T03:24:50.631Z,100797.22
2022-10-02T03:28:00.233Z,100799.22
2022-10-02T03:31:05.301Z,100798.91
2022-10-02T03:34:08.468Z,100800.06
2022-10-02T03:37:11.213Z,100801.91
2022-10-02T03:40:13.869Z,100803.63
2022-10-02T03:43:21.359Z,100811.34
2022-10-02T03:46:25.375Z,100807.28
2022-10-02T03:49:28.145Z,100802.81
2022-10-02T03:52:32.751Z,100812.69
2022-10-02T03:55:40.016Z,100797.63
2022-10-02T03:58:48.912Z,100808.84
2022-10-02T04:01:55.926Z,100812.63
2022-10-02T04:05:04.398Z,100809.22
2022-10-02T04:08:14.215Z,100809.22
2022-10-02T04:11:23.862Z,100806.56
2022-10-02T04:14:32.087Z,100810.13
2022-10-02T04:17:44.038Z,100816.44
2022-10-02T04:20:51.075Z,100825.97
2022-10-02T04:23:58.741Z,100813.09
2022-10-02T04:27:06.039Z,100816.41
2022-10-02T04:30:12.122Z,100824.63
2022-10-02T04:33:19.885Z,100812.47
2022-10-02T04:36:32.173Z,100809.78
2022-10-02T04:39:52.267Z,100815.38
2022-10-02T04:43:07.644Z,100819.00
2022-10-02T04:46:24.912Z,100825.72
2022-10-02T04:49:48.105Z,100829.34
2022-10-02T04:53:03.828Z,100834.25
2022-10-02T04:56:21.079Z,100829.41
2022-10-02T04:59:40.704Z,100830.03
2022-10-02T05:02:58.412Z,100829.78
2022-10-02T05:06:21.950Z,100833.25
2022-10-02T05:09:30.847Z,100833.28
2022-10-02T05:12:52.994Z,100836.63
2022-10-02T05:16:09.641Z,100845.09
2022-10-02T05:19:33.563Z,100852.94
2022-10-02T05:22:49.887Z,100850.78
2022-10-02T05:26:13.530Z,100849.31
2022-10-02T05:29:41.293Z,100844.84
2022-10-02T05:33:12.916Z,100855.41
2022-10-02T05:36:29.729Z,100853.34
2022-10-02T05:39:35.252Z,100845.66
2022-10-02T05:42:43.119Z,100849.25
2022-10-02T05:45:52.952Z,100848.16
2022-10-02T05:48:59.616Z,100845.81
2022-10-02T05:52:06.409Z,100847.13
2022-10-02T05:55:17.759Z,100845.91
2022-10-02T05:58:26.469Z,100854.81
2022-10-02T06:01:34.169Z,100847.63
2022-10-02T06:04:40.835Z,100845.28
2022-10-02T06:07:47.984Z,100849.41
2022-10-02T06:10:55.203Z,100849.19
2022-10-02T06:14:05.148Z,100852.16
2022-10-02T06:17:13.603Z,100852.72
2022-10-02T06:20:23.292Z,100868.94
2022-10-02T06:23:31.193Z,100867.19
2022-10-02T06:26:43.084Z,100863.69
2022-10-02T06:29:51.553Z,100874.44
2022-10-02T06:33:01.248Z,100872.09
2022-10-02T06:36:31.102Z,100878.84
2022-10-02T06:39:49.276Z,100881.22
2022-10-02T06:43:04.486Z,100891.28
2022-10-02T06:46:22.835Z,100878.88
2022-10-02T06:49:35.893Z,100877.53
2022-10-02T06:52:48.867Z,100880.44
2022-10-02T06:56:01.304Z,100884.69
2022-10-02T06:59:19.769Z,100882.22
2022-10-02T07:02:35.889Z,100877.81
2022-10-02T07:06:07.629Z,100862.66
2022-10-02T07:09:35.327Z,100878.53
2022-10-02T07:12:58.261Z,100879.25
2022-10-02T07:16:33.269Z,100881.22
2022-10-02T07:20:00.167Z,100881.41
2022-10-02T07:23:19.108Z,100886.00
2022-10-02T07:26:46.959Z,100886.59
2022-10-02T07:30:00.571Z,100888.66
2022-10-02T07:33:10.692Z,100895.31
2022-10-02T07:36:18.568Z,100897.50
2022-10-02T07:39:36.696Z,100896.22
2022-10-02T07:42:57.196Z,100889.09
2022-10-02T07:46:35.417Z,100905.72
2022-10-02T07:49:53.073Z,100901.50
2022-10-02T07:53:06.499Z,100906.72
2022-10-02T07:56:21.908Z,100908.91
2022-10-02T07:59:36.081Z,100911.44
2022-10-02T08:06:43.709Z,100916.25
2022-10-02T08:13:33.177Z,100909.13
2022-10-02T08:17:02.325Z,100905.06
2022-10-02T08:20:29.183Z,100898.13
2022-10-02T08:23:49.928Z,100895.03
2022-10-02T08:27:11.818Z,100890.91
2022-10-02T08:30:18.950Z,100904.66
2022-10-02T08:33:23.142Z,100890.84
2022-10-02T08:36:46.804Z,100888.88
2022-10-02T08:40:19.277Z,100894.84
2022-10-02T08:43:59.565Z,100892.78
2022-10-02T08:47:39.497Z,100891.06
2022-10-02T08:51:20.765Z,100889.34
2022-10-02T08:54:52.867Z,100891.66
2022-10-02T08:58:36.970Z,100891.84
2022-10-02T09:02:09.485Z,100892.97
2022-10-02T09:05:56.202Z,100901.31
2022-10-02T09:09:46.567Z,100892.56
2022-10-02T09:13:14.423Z,100899.31
2022-10-02T09:16:30.675Z,100902.31
2022-10-02T09:19:45.254Z,100906.19
2022-10-02T09:23:17.571Z,100898.00
2022-10-02T09:26:34.515Z,100893.25
2022-10-02T09:30:03.799Z,100885.56
2022-10-02T09:33:35.253Z,100882.69
2022-10-02T09:37:04.338Z,100865.16
2022-10-02T09:41:04.392Z,100861.59
2022-10-02T09:44:37.064Z,100846.94
2022-10-02T09:48:20.133Z,100848.91
2022-10-02T09:51:59.977Z,100857.94
2022-10-02T09:55:43.456Z,100860.69
2022-10-02T09:59:28.448Z,100865.19
2022-10-02T10:03:09.409Z,100869.22
2022-10-02T10:06:50.350Z,100870.13
2022-10-02T10:10:21.985Z,100888.88
2022-10-02T10:13:53.839Z,100885.28
2022-10-02T10:17:31.691Z,100889.03
2022-10-02T10:20:59.100Z,100898.41
2022-10-02T10:24:31.314Z,100892.47
2022-10-02T10:28:06.220Z,100898.75
2022-10-02T10:31:38.257Z,100906.09
2022-10-02T10:35:15.800Z,100908.38
2022-10-02T10:38:39.235Z,100915.13
2022-10-02T10:42:05.543Z,100912.78
2022-10-02T10:45:28.379Z,100914.13
2022-10-02T10:48:47.141Z,100904.09
2022-10-02T10:52:00.086Z,100907.44
2022-10-02T10:55:18.256Z,100910.31
2022-10-02T10:58:32.876Z,100909.47
2022-10-02T11:01:48.627Z,100912.88
2022-10-02T11:05:05.878Z,100898.28
2022-10-02T11:08:26.392Z,100903.94
2022-10-02T11:11:40.256Z,100906.44
2022-10-02T11:14:54.142Z,100906.97
2022-10-02T11:18:28.661Z,100898.47
2022-10-02T11:21:57.046Z,100881.53
2022-10-02T11:25:21.363Z,100880.34
2022-10-02T11:28:46.860Z,100872.31
2022-10-02T11:32:17.122Z,100870.78
2022-10-02T11:35:33.293Z,100878.50
2022-10-02T11:39:06.692Z,100871.38
2022-10-02T11:42:27.394Z,100882.25
2022-10-02T11:45:55.414Z,100870.06
2022-10-02T11:49:43.231Z,100865.53
2022-10-02T11:53:20.681Z,100871.41
2022-10-02T11:56:44.789Z,100863.28
2022-10-02T12:00:06.215Z,100869.44
2022-10-02T12:03:20.106Z,100865.69
2022-10-02T12:06:38.186Z,100864.56
2022-10-02T12:09:57.203Z,100882.28
2022-10-02T12:13:16.173Z,100868.25
2022-10-02T12:16:31.722Z,100884.16
2022-10-02T12:20:12.593Z,100877.50
2022-10-02T12:23:49.409Z,100880.31
2022-10-02T12:27:04.586Z,100887.59
2022-10-02T12:30:12.883Z,100887.06
2022-10-02T12:33:28.372Z,100885.06
2022-10-02T12:36:51.340Z,100886.97
2022-10-02T12:40:04.929Z,100889.38
2022-10-02T12:43:41.278Z,100883.75
2022-10-02T12:47:22.078Z,100882.66
2022-10-02T12:50:41.015Z,100881.53
2022-10-02T12:54:25.097Z,100880.38
2022-10-02T12:57:58.790Z,100880.81
2022-10-02T13:01:32.681Z,100880.13
2022-10-02T13:05:26.232Z,100880.59
2022-10-02T13:08:44.511Z,100878.00
2022-10-02T13:12:03.781Z,100883.44
2022-10-02T13:15:29.151Z,100883.19
2022-10-02T13:18:53.396Z,100889.09
2022-10-02T13:22:02.739Z,100879.75
2022-10-02T13:25:30.382Z,100884.91
2022-10-02T13:29:03.118Z,100884.56
2022-10-02T13:32:20.798Z,100899.03
2022-10-02T13:35:45.889Z,100884.53
2022-10-02T13:39:04.610Z,100879.94
2022-10-02T13:42:21.447Z,100884.28
2022-10-02T13:45:30.882Z,100874.13
2022-10-02T13:48:44.950Z,100877.91
2022-10-02T13:51:57.644Z,100880.16
2022-10-02T13:55:13.551Z,100870.16
2022-10-02T13:58:32.193Z,100874.03
2022-10-02T14:01:49.706Z,100871.72
2022-10-02T14:05:00.642Z,100863.59
2022-10-02T14:08:19.909Z,100880.81
2022-10-02T14:11:36.885Z,100870.72
2022-10-02T14:14:58.055Z,100883.75
2022-10-02T14:18:27.772Z,100873.94
2022-10-02T14:21:35.556Z,100881.06
2022-10-02T14:25:17.044Z,100886.03
2022-10-02T14:28:29.379Z,100908.97
2022-10-02T14:32:02.804Z,100907.59
2022-10-02T14:35:32.044Z,100904.13
2022-10-02T14:38:55.053Z,100916.16
2022-10-02T14:42:15.140Z,100901.19
2022-10-02T14:45:37.581Z,100912.94
2022-10-02T14:48:58.426Z,100912.00
2022-10-02T14:52:23.783Z,100914.41
2022-10-02T14:55:33.493Z,100909.16
2022-10-02T14:58:49.361Z,100921.56
2022-10-02T15:02:01.062Z,100919.66
2022-10-02T15:05:18.480Z,100918.34
2022-10-02T15:08:28.172Z,100928.03
2022-10-02T15:11:53.984Z,100919.34
2022-10-02T15:15:08.718Z,100921.31
2022-10-02T15:18:25.760Z,100933.88
2022-10-02T15:21:38.757Z,100928.88
2022-10-02T15:24:45.577Z,100921.63
2022-10-02T15:28:18.147Z,100933.22
2022-10-02T15:31:28.285Z,100935.94
2022-10-02T15:34:36.999Z,100934.66
2022-10-02T15:37:49.824Z,100941.22
2022-10-02T15:41:17.988Z,100940.13
2022-10-02T15:44:51.763Z,100941.34
2022-10-02T15:48:12.782Z,100939.44
2022-10-02T15:51:25.578Z,100955.75
2022-10-02T15:54:55.066Z,100952.47
2022-10-02T15:58:15.505Z,100961.63
2022-10-02T16:01:39.241Z,100950.53
2022-10-02T16:04:59.643Z,100965.44
2022-10-02T16:08:22.861Z,100961.91
2022-10-02T16:11:41.909Z,100967.69
2022-10-02T16:14:56.855Z,100975.19
2022-10-02T16:18:19.822Z,100972.19
2022-10-02T16:21:39.788Z,100977.13
2022-10-02T16:25:06.611Z,100982.94
2022-10-02T16:28:25.435Z,100994.25
2022-10-02T16:31:41.029Z,100998.66
2022-10-02T16:35:03.488Z,101000.88
2022-10-02T16:38:17.990Z,100997.84
2022-10-02T16:41:43.103Z,101011.91
2022-10-02T16:45:06.203Z,101015.25
2022-10-02T16:48:14.732Z,101013.56
2022-10-02T16:51:32.567Z,101023.47
2022-10-02T16:54:46.144Z,101024.03
2022-10-02T16:57:59.019Z,101037.50
2022-10-02T17:01:15.590Z,101038.84
2022-10-02T17:04:32.107Z,101037.97
2022-10-02T17:07:49.329Z,101032.16
2022-10-02T17:11:10.067Z,101047.28
2022-10-02T17:14:19.013Z,101042.00
2022-10-02T17:17:27.869Z,101051.91
2022-10-02T17:20:33.913Z,101052.44
2022-10-02T17:23:43.488Z,101061.75
2022-10-02T17:26:50.875Z,101061.41
2022-10-02T17:30:03.791Z,101067.19
2022-10-02T17:33:19.575Z,101070.19
2022-10-02T17:36:31.700Z,101078.09
2022-10-02T17:39:53.462Z,101077.00
2022-10-02T17:43:04.812Z,101095.09
2022-10-02T17:46:33.199Z,101095.94
2022-10-02T17:49:46.586Z,101107.19
2022-10-02T17:53:15.066Z,101102.16
2022-10-02T17:56:34.334Z,101108.75
2022-10-02T18:00:03.645Z,101116.69
2022-10-02T18:07:08.359Z,101118.50
2022-10-02T18:10:24.902Z,101124.84
2022-10-02T18:13:45.627Z,101136.63
2022-10-02T18:17:06.409Z,101132.78
2022-10-02T18:20:18.180Z,101144.63
2022-10-02T18:23:38.276Z,101139.53
2022-10-02T18:26:53.180Z,101153.53
2022-10-02T18:30:08.894Z,101139.22
2022-10-02T18:33:31.490Z,101145.03
2022-10-02T18:36:52.149Z,101148.56
2022-10-02T18:40:14.043Z,101143.31
2022-10-02T18:43:33.745Z,101153.72
2022-10-02T18:46:52.184Z,101154.81
2022-10-02T18:50:10.783Z,101156.91
2022-10-02T18:53:32.876Z,101165.41
2022-10-02T18:56:55.659Z,101166.78
2022-10-02T19:00:13.701Z,101173.28
2022-10-02T19:03:29.893Z,101171.56
2022-10-02T19:06:34.794Z,101175.06
2022-10-02T19:09:37.441Z,101175.19
2022-10-02T19:12:44.438Z,101183.78
2022-10-02T19:15:48.827Z,101185.63
2022-10-02T19:19:06.680Z,101188.81
2022-10-02T19:22:17.745Z,101199.09
2022-10-02T19:25:21.096Z,101200.91
2022-10-02T19:28:29.516Z,101202.25
2022-10-02T19:31:39.231Z,101211.34
2022-10-02T19:34:43.725Z,101210.50
2022-10-02T19:37:51.147Z,101219.44
2022-10-02T19:40:57.400Z,101223.28
2022-10-02T19:44:06.922Z,101219.13
2022-10-02T19:47:16.772Z,101216.31
2022-10-02T19:50:23.235Z,101221.88
2022-10-02T19:53:29.964Z,101222.44
2022-10-02T19:56:40.986Z,101230.25
2022-10-02T19:59:49.601Z,101233.78
2022-10-02T20:02:55.955Z,101229.44
2022-10-02T20:06:01.995Z,101232.53
2022-10-02T20:09:13.559Z,101232.28
2022-10-02T20:12:20.230Z,101233.22
2022-10-02T20:15:46.212Z,101241.63
2022-10-02T20:18:50.739Z,101234.63
2022-10-02T20:21:55.353Z,101245.09
2022-10-02T20:25:03.702Z,101246.81
2022-10-02T20:28:17.207Z,101247.47
2022-10-02T20:31:29.163Z,101252.50
2022-10-02T20:34:43.008Z,101255.13
2022-10-02T20:37:48.928Z,101272.50
2022-10-02T20:40:54.579Z,101271.53
2022-10-02T20:44:05.667Z,101267.63
2022-10-02T20:47:38.261Z,101260.19
2022-10-02T20:50:50.612Z,101274.34
2022-10-02T20:54:16.333Z,101267.88
2022-10-02T20:58:00.045Z,101278.97
2022-10-02T21:01:17.074Z,101289.22
2022-10-02T21:04:54.708Z,101273.56
2022-10-02T21:08:22.796Z,101286.09
2022-10-02T21:11:43.408Z,101276.56
2022-10-02T21:15:15.570Z,101282.13
2022-10-02T21:18:47.276Z,101293.03
2022-10-02T21:22:16.697Z,101291.78
2022-10-02T21:25:45.175Z,101288.44
2022-10-02T21:29:17.721Z,101289.09
2022-10-02T21:32:38.306Z,101297.28
2022-10-02T21:35:50.750Z,101298.16
2022-10-02T21:39:34.807Z,101306.94
2022-10-02T21:43:09.834Z,101309.09
2022-10-02T21:46:45.171Z,101307.91
2022-10-02T21:50:15.070Z,101310.84
2022-10-02T21:53:51.896Z,101310.41
2022-10-02T21:57:41.982Z,101313.78
2022-10-02T22:01:08.287Z,101315.91
2022-10-02T22:04:45.306Z,101320.00
2022-10-02T22:07:55.326Z,101325.66
2022-10-02T22:11:05.404Z,101321.78
2022-10-02T22:14:11.631Z,101320.69
2022-10-02T22:17:27.111Z,101329.09
2022-10-02T22:20:44.820Z,101327.28
2022-10-02T22:24:12.436Z,101331.56
2022-10-02T22:27:45.427Z,101334.06
2022-10-02T22:31:08.182Z,101341.22
2022-10-02T22:34:24.915Z,101337.75
2022-10-02T22:38:05.254Z,101339.72
2022-10-02T22:41:12.890Z,101344.25
2022-10-02T22:44:24.708Z,101343.94
2022-10-02T22:47:35.755Z,101346.03
2022-10-02T22:50:49.034Z,101338.03
2022-10-02T22:53:56.591Z,101349.84
2022-10-02T22:57:11.357Z,101351.53
2022-10-02T23:00:19.358Z,101342.69
2022-10-02T23:03:26.034Z,101358.25
2022-10-02T23:06:37.840Z,101359.97
2022-10-02T23:09:49.455Z,101359.75
2022-10-02T23:13:03.266Z,101354.03
2022-10-02T23:16:09.315Z,101352.19
2022-10-02T23:19:19.529Z,101361.97
2022-10-02T23:22:31.558Z,101361.88
2022-10-02T23:25:41.518Z,101371.13
2022-10-02T23:28:53.101Z,101370.53
2022-10-02T23:32:05.511Z,101374.19
2022-10-02T23:35:15.465Z,101382.34
2022-10-02T23:38:24.385Z,101383.25
2022-10-02T23:41:40.574Z,101386.47
2022-10-02T23:44:49.674Z,101395.13
2022-10-02T23:47:59.883Z,101388.16
2022-10-02T23:51:15.893Z,101393.66
2022-10-02T23:54:38.376Z,101397.94
2022-10-02T23:58:05.039Z,101390.28
